createdAt,value
2018-04-26T00:02:06.145Z,96.80
2018-04-26T00:04:33.756Z,96.70
2018-04-26T00:07:01.376Z,96.90
2018-04-26T00:09:29.021Z,96.80
2018-04-26T00:11:56.659Z,97.30
2018-04-26T00:14:24.249Z,97.30
2018-04-26T00:16:51.985Z,97.30
2018-04-26T00:19:19.611Z,97.10
2018-04-26T00:21:48.133Z,97.40
2018-04-26T00:24:15.752Z,97.40
2018-04-26T00:26:43.341Z,97.50
2018-04-26T00:29:11.133Z,97.60
2018-04-26T00:31:38.731Z,97.60
2018-04-26T00:34:07.892Z,97.60
2018-04-26T00:36:36.164Z,97.60
2018-04-26T00:39:03.858Z,97.40
2018-04-26T00:41:31.492Z,96.90
2018-04-26T00:43:59.104Z,97.00
2018-04-26T00:46:26.698Z,96.90
2018-04-26T00:48:54.328Z,96.70
2018-04-26T00:51:33.825Z,96.70
2018-04-26T00:54:01.433Z,96.20
2018-04-26T00:56:29.022Z,96.60
2018-04-26T00:58:56.680Z,96.30
2018-04-26T01:01:25.036Z,96.80
2018-04-26T01:03:52.648Z,96.80
2018-04-26T01:06:20.297Z,96.50
2018-04-26T01:08:48.093Z,96.70
2018-04-26T01:11:15.692Z,96.80
2018-04-26T01:13:43.325Z,97.30
2018-04-26T01:16:11.092Z,97.60
2018-04-26T01:18:38.713Z,97.90
2018-04-26T01:21:08.836Z,98.40
2018-04-26T01:23:37.204Z,98.50
2018-04-26T01:26:06.363Z,98.40
2018-04-26T01:28:34.128Z,98.30
2018-04-26T01:31:01.737Z,98.50
2018-04-26T01:33:29.358Z,98.80
2018-04-26T01:35:56.968Z,99.00
2018-04-26T01:38:24.589Z,99.00
2018-04-26T01:40:52.241Z,99.10
2018-04-26T01:43:19.917Z,99.20
2018-04-26T01:45:51.150Z,99.70
2018-04-26T01:48:20.271Z,99.70
2018-04-26T01:50:47.875Z,99.70
2018-04-26T01:53:16.228Z,99.90
2018-04-26T01:55:43.843Z,99.90
2018-04-26T01:58:11.478Z,99.90
2018-04-26T02:00:39.870Z,99.90
2018-04-26T02:03:07.491Z,99.90
2018-04-26T02:05:35.104Z,99.90
2018-04-26T02:08:03.496Z,99.90
2018-04-26T02:10:31.133Z,99.90
2018-04-26T02:12:58.774Z,99.90
2018-04-26T02:15:26.380Z,99.90
2018-04-26T02:17:54.056Z,99.90
2018-04-26T02:20:21.721Z,99.90
2018-04-26T02:22:49.320Z,99.90
2018-04-26T02:25:16.917Z,99.90
2018-04-26T02:27:44.537Z,99.90
2018-04-26T02:30:12.303Z,99.90
2018-04-26T02:32:39.938Z,99.90
2018-04-26T02:35:08.161Z,99.90
2018-04-26T02:37:35.816Z,99.40
2018-04-26T02:40:03.473Z,99.20
2018-04-26T02:42:31.105Z,98.90
2018-04-26T02:44:58.733Z,98.70
2018-04-26T02:47:26.369Z,97.90
2018-04-26T02:49:53.953Z,98.00
2018-04-26T02:52:21.616Z,97.80
2018-04-26T02:54:49.480Z,97.40
2018-04-26T02:57:17.117Z,97.40
2018-04-26T02:59:44.790Z,97.30
2018-04-26T03:02:12.484Z,97.40
2018-04-26T03:04:40.117Z,97.50
2018-04-26T03:07:07.786Z,96.90
2018-04-26T03:09:35.881Z,97.00
2018-04-26T03:12:03.554Z,97.40
2018-04-26T03:14:31.176Z,97.40
2018-04-26T03:16:58.796Z,97.30
2018-04-26T03:19:27.148Z,97.50
2018-04-26T03:21:54.773Z,97.50
2018-04-26T03:24:22.369Z,97.70
2018-04-26T03:26:49.974Z,97.80
2018-04-26T03:29:18.375Z,98.10
2018-04-26T03:31:46.006Z,98.10
2018-04-26T03:34:13.634Z,98.60
2018-04-26T03:36:41.264Z,98.60
2018-04-26T03:39:08.864Z,98.20
2018-04-26T03:41:36.501Z,98.30
2018-04-26T03:44:04.157Z,98.30
2018-04-26T03:46:31.776Z,98.50
2018-04-26T03:48:59.391Z,99.00
2018-04-26T03:51:27.046Z,99.50
2018-04-26T03:53:55.395Z,99.90
2018-04-26T03:56:23.046Z,99.90
2018-04-26T03:58:51.469Z,99.90
2018-04-26T04:01:31.609Z,99.90
2018-04-26T04:04:11.052Z,99.90
2018-04-26T04:06:39.405Z,99.90
2018-04-26T04:09:06.999Z,99.90
2018-04-26T04:11:35.391Z,99.90
2018-04-26T04:14:02.971Z,99.90
2018-04-26T04:16:30.560Z,99.90
2018-04-26T04:18:58.180Z,99.90
2018-04-26T04:21:25.817Z,99.90
2018-04-26T04:23:53.405Z,99.90
2018-04-26T04:26:21.829Z,99.90
2018-04-26T04:28:49.515Z,99.90
2018-04-26T04:31:17.933Z,99.90
2018-04-26T04:33:46.330Z,99.90
2018-04-26T04:36:13.996Z,99.90
2018-04-26T04:38:42.392Z,99.90
2018-04-26T04:41:10.009Z,99.90
2018-04-26T04:43:37.639Z,99.90
2018-04-26T04:46:05.234Z,99.90
2018-04-26T04:48:32.892Z,99.90
2018-04-26T04:51:00.480Z,99.90
2018-04-26T04:53:28.112Z,99.90
2018-04-26T04:55:55.736Z,99.90
2018-04-26T04:58:23.370Z,99.90
2018-04-26T05:00:51.771Z,99.90
2018-04-26T05:03:19.359Z,99.90
2018-04-26T05:05:46.992Z,99.90
2018-04-26T05:08:14.608Z,99.90
2018-04-26T05:10:42.235Z,99.90
2018-04-26T05:13:09.916Z,99.90
2018-04-26T05:15:37.509Z,99.90
2018-04-26T05:18:05.154Z,99.90
2018-04-26T05:20:32.856Z,99.90
2018-04-26T05:23:00.530Z,99.90
2018-04-26T05:25:28.896Z,99.90
2018-04-26T05:27:56.523Z,99.90
2018-04-26T05:30:24.200Z,99.90
2018-04-26T05:32:51.817Z,99.90
2018-04-26T05:35:19.415Z,99.90
2018-04-26T05:37:47.153Z,99.90
2018-04-26T05:40:14.813Z,99.90
2018-04-26T05:42:43.398Z,99.90
2018-04-26T05:45:11.802Z,99.90
2018-04-26T05:47:39.927Z,99.90
2018-04-26T05:50:07.610Z,99.90
2018-04-26T05:52:36.096Z,99.90
2018-04-26T05:55:04.575Z,99.90
2018-04-26T05:57:33.853Z,99.90
2018-04-26T06:00:01.532Z,99.80
2018-04-26T06:02:30.464Z,99.50
2018-04-26T06:04:58.271Z,99.40
2018-04-26T06:07:25.921Z,99.30
2018-04-26T06:09:53.589Z,99.30
2018-04-26T06:12:21.889Z,98.70
2018-04-26T06:14:49.655Z,98.40
2018-04-26T06:17:17.379Z,98.00
2018-04-26T06:19:46.213Z,97.70
2018-04-26T06:22:14.041Z,97.30
2018-04-26T06:24:41.835Z,97.00
2018-04-26T06:27:09.807Z,97.20
2018-04-26T06:29:37.547Z,97.10
2018-04-26T06:32:05.135Z,97.40
2018-04-26T06:34:33.740Z,96.70
2018-04-26T06:37:01.994Z,95.70
2018-04-26T06:39:29.757Z,95.40
2018-04-26T06:41:57.424Z,95.20
2018-04-26T06:44:25.539Z,94.60
2018-04-26T06:46:53.949Z,94.20
2018-04-26T06:49:21.583Z,94.20
2018-04-26T06:51:49.309Z,94.30
2018-04-26T06:54:16.919Z,94.00
2018-04-26T06:56:44.552Z,92.40
2018-04-26T06:59:12.330Z,90.80
2018-04-26T07:01:41.418Z,90.80
2018-04-26T07:04:09.839Z,90.70
2018-04-26T07:06:37.554Z,90.70
2018-04-26T07:09:06.125Z,90.60
2018-04-26T07:11:33.712Z,90.30
2018-04-26T07:14:01.370Z,86.30
2018-04-26T07:16:28.955Z,82.20
2018-04-26T07:18:56.581Z,83.00
2018-04-26T07:21:24.198Z,85.40
2018-04-26T07:23:51.916Z,83.80
2018-04-26T07:26:19.549Z,82.20
2018-04-26T07:28:47.176Z,80.70
2018-04-26T07:31:16.328Z,82.30
2018-04-26T07:33:43.946Z,82.40
2018-04-26T07:36:11.602Z,90.30
2018-04-26T07:38:39.256Z,92.70
2018-04-26T07:41:06.901Z,95.50
2018-04-26T07:43:34.540Z,98.80
2018-04-26T07:46:03.072Z,99.90
2018-04-26T07:48:30.687Z,99.90
2018-04-26T07:50:58.349Z,99.90
2018-04-26T07:53:27.457Z,99.90
2018-04-26T07:55:55.258Z,99.90
2018-04-26T07:58:22.892Z,99.90
2018-04-26T08:00:50.505Z,99.90
2018-04-26T08:03:18.959Z,99.90
2018-04-26T08:05:46.724Z,99.90
2018-04-26T08:08:15.046Z,99.90
2018-04-26T08:10:44.564Z,99.90
2018-04-26T08:13:13.338Z,99.90
2018-04-26T08:15:42.617Z,99.90
2018-04-26T08:18:10.295Z,99.90
2018-04-26T08:20:38.076Z,99.90
2018-04-26T08:23:06.053Z,99.90
2018-04-26T08:25:35.145Z,99.90
2018-04-26T08:28:02.899Z,99.90
2018-04-26T08:30:31.518Z,99.90
2018-04-26T08:32:59.137Z,99.90
2018-04-26T08:35:26.823Z,99.90
2018-04-26T08:37:54.886Z,99.90
2018-04-26T08:40:22.569Z,99.90
2018-04-26T08:42:50.160Z,99.90
2018-04-26T08:45:18.713Z,99.90
2018-04-26T08:47:46.444Z,99.90
2018-04-26T08:50:14.952Z,99.90
2018-04-26T08:52:44.970Z,99.90
2018-04-26T08:55:14.307Z,99.90
2018-04-26T08:57:42.635Z,99.90
2018-04-26T09:00:10.328Z,99.20
2018-04-26T09:02:38.455Z,98.80
2018-04-26T09:05:07.125Z,98.30
2018-04-26T09:07:37.286Z,96.90
2018-04-26T09:10:05.027Z,96.90
2018-04-26T09:12:32.700Z,95.10
2018-04-26T09:15:00.376Z,95.70
2018-04-26T09:17:28.155Z,95.00
2018-04-26T09:19:55.870Z,92.60
2018-04-26T09:22:24.295Z,92.40
2018-04-26T09:24:51.898Z,92.50
2018-04-26T09:27:19.512Z,85.50
2018-04-26T09:29:49.448Z,85.30
2018-04-26T09:32:17.252Z,89.90
2018-04-26T09:34:45.651Z,94.20
2018-04-26T09:37:14.161Z,94.20
2018-04-26T09:39:42.480Z,95.70
2018-04-26T09:42:10.189Z,95.50
2018-04-26T09:44:37.843Z,96.00
2018-04-26T09:47:06.213Z,92.10
2018-04-26T09:49:33.844Z,92.10
2018-04-26T09:52:01.747Z,87.80
2018-04-26T09:54:29.432Z,88.30
2018-04-26T09:56:57.113Z,87.10
2018-04-26T09:59:29.420Z,86.80
2018-04-26T10:02:03.038Z,82.70
2018-04-26T10:04:37.055Z,77.90
2018-04-26T10:07:06.184Z,81.60
2018-04-26T10:09:33.821Z,81.50
2018-04-26T10:12:01.732Z,75.70
2018-04-26T10:14:29.535Z,71.90
2018-04-26T10:17:00.474Z,74.40
2018-04-26T10:19:30.300Z,75.50
2018-04-26T10:22:01.019Z,76.20
2018-04-26T10:24:28.656Z,67.80
2018-04-26T10:26:56.252Z,66.20
2018-04-26T10:29:23.872Z,64.80
2018-04-26T10:31:52.288Z,67.50
2018-04-26T10:34:19.876Z,67.50
2018-04-26T10:36:47.948Z,65.70
2018-04-26T10:39:18.873Z,65.80
2018-04-26T10:41:46.792Z,67.50
2018-04-26T10:44:14.538Z,65.40
2018-04-26T10:46:42.184Z,64.70
2018-04-26T10:49:09.811Z,64.10
2018-04-26T10:51:37.432Z,65.30
2018-04-26T10:54:05.538Z,62.20
2018-04-26T10:56:33.264Z,59.30
2018-04-26T10:59:01.711Z,64.80
2018-04-26T11:01:29.533Z,64.90
2018-04-26T11:03:57.290Z,66.80
2018-04-26T11:06:25.691Z,63.20
2018-04-26T11:08:53.308Z,63.10
2018-04-26T11:11:21.229Z,61.30
2018-04-26T11:13:49.252Z,61.80
2018-04-26T11:16:16.910Z,64.50
2018-04-26T11:18:44.492Z,62.00
2018-04-26T11:21:12.170Z,57.10
2018-04-26T11:23:39.732Z,57.70
2018-04-26T11:26:10.256Z,57.40
2018-04-26T11:28:37.913Z,57.30
2018-04-26T11:31:06.415Z,55.10
2018-04-26T11:33:34.062Z,55.10
2018-04-26T11:36:01.694Z,55.20
2018-04-26T11:38:29.985Z,54.10
2018-04-26T11:40:57.733Z,55.00
2018-04-26T11:43:26.351Z,56.90
2018-04-26T11:45:53.988Z,56.90
2018-04-26T11:48:21.867Z,57.00
2018-04-26T11:50:50.409Z,56.70
2018-04-26T11:53:18.239Z,56.70
2018-04-26T11:55:46.073Z,55.60
2018-04-26T11:58:13.788Z,51.80
2018-04-26T12:00:42.532Z,51.30
2018-04-26T12:03:10.211Z,52.10
2018-04-26T12:05:37.934Z,53.00
2018-04-26T12:08:08.446Z,54.20
2018-04-26T12:10:37.205Z,54.10
2018-04-26T12:13:06.109Z,54.70
2018-04-26T12:15:33.724Z,54.50
2018-04-26T12:18:02.190Z,56.20
2018-04-26T12:20:30.584Z,54.10
2018-04-26T12:23:00.252Z,54.00
2018-04-26T12:25:27.893Z,54.80
2018-04-26T12:27:55.515Z,52.90
2018-04-26T12:30:24.016Z,54.80
2018-04-26T12:32:52.448Z,52.20
2018-04-26T12:35:20.973Z,52.10
2018-04-26T12:37:48.568Z,50.90
2018-04-26T12:40:16.201Z,49.40
2018-04-26T12:42:44.567Z,50.50
2018-04-26T12:45:12.977Z,50.20
2018-04-26T12:47:41.337Z,51.70
2018-04-26T12:50:09.125Z,51.60
2018-04-26T12:52:37.284Z,52.20
2018-04-26T12:55:05.212Z,51.70
2018-04-26T12:57:33.055Z,50.10
2018-04-26T13:00:00.707Z,51.80
2018-04-26T13:02:30.089Z,52.50
2018-04-26T13:04:59.827Z,52.30
2018-04-26T13:07:28.272Z,53.20
2018-04-26T13:09:55.917Z,52.50
2018-04-26T13:12:23.812Z,51.20
2018-04-26T13:14:51.562Z,51.40
2018-04-26T13:17:19.768Z,52.10
2018-04-26T13:19:47.688Z,53.70
2018-04-26T13:22:15.521Z,52.90
2018-04-26T13:24:43.937Z,51.50
2018-04-26T13:27:12.725Z,51.50
2018-04-26T13:29:42.031Z,50.70
2018-04-26T13:32:09.764Z,48.30
2018-04-26T13:34:38.712Z,46.60
2018-04-26T13:37:09.165Z,48.80
2018-04-26T13:39:36.841Z,49.40
2018-04-26T13:42:04.604Z,49.10
2018-04-26T13:44:33.217Z,47.50
2018-04-26T13:47:01.697Z,46.50
2018-04-26T13:49:30.285Z,46.40
2018-04-26T13:51:58.918Z,46.50
2018-04-26T13:54:26.590Z,46.50
2018-04-26T13:56:54.478Z,46.60
2018-04-26T13:59:22.235Z,46.70
2018-04-26T14:01:49.921Z,46.50
2018-04-26T14:04:18.338Z,46.40
2018-04-26T14:06:46.014Z,46.40
2018-04-26T14:09:13.665Z,45.20
2018-04-26T14:11:42.181Z,44.80
2018-04-26T14:14:10.343Z,45.30
2018-04-26T14:16:37.992Z,44.40
2018-04-26T14:19:05.661Z,44.00
2018-04-26T14:21:33.291Z,40.10
2018-04-26T14:24:02.571Z,39.80
2018-04-26T14:26:30.256Z,39.30
2018-04-26T14:28:57.844Z,38.80
2018-04-26T14:31:25.505Z,38.00
2018-04-26T14:33:53.168Z,39.70
2018-04-26T14:36:20.798Z,36.30
2018-04-26T14:38:48.440Z,36.50
2018-04-26T14:41:16.069Z,37.40
2018-04-26T14:43:43.737Z,39.20
2018-04-26T14:46:11.577Z,39.50
2018-04-26T14:48:40.016Z,41.90
2018-04-26T14:51:07.621Z,41.90
2018-04-26T14:53:35.258Z,42.70
2018-04-26T14:56:02.894Z,43.10
2018-04-26T14:58:30.555Z,40.80
2018-04-26T15:00:58.156Z,41.00
2018-04-26T15:03:25.794Z,40.40
2018-04-26T15:05:53.609Z,39.50
2018-04-26T15:08:21.330Z,38.30
2018-04-26T15:10:49.242Z,38.10
2018-04-26T15:13:17.676Z,38.30
2018-04-26T15:15:45.326Z,38.30
2018-04-26T15:18:12.934Z,39.60
2018-04-26T15:20:40.564Z,37.70
2018-04-26T15:23:08.170Z,37.80
2018-04-26T15:25:35.846Z,37.40
2018-04-26T15:28:03.876Z,37.00
2018-04-26T15:30:31.518Z,36.30
2018-04-26T15:32:59.109Z,35.60
2018-04-26T15:35:26.709Z,37.90
2018-04-26T15:37:54.324Z,36.50
2018-04-26T15:40:22.327Z,36.60
2018-04-26T15:42:49.964Z,38.30
2018-04-26T15:45:17.595Z,35.60
2018-04-26T15:47:46.234Z,34.40
2018-04-26T15:50:14.641Z,36.00
2018-04-26T15:53:00.024Z,35.90
2018-04-26T15:55:41.446Z,36.00
2018-04-26T16:01:38.803Z,33.90
2018-04-26T16:04:18.342Z,34.40
2018-04-26T16:10:20.638Z,36.40
2018-04-26T16:13:05.923Z,36.50
2018-04-26T16:18:56.375Z,35.90
2018-04-26T16:21:36.650Z,35.60
2018-04-26T16:24:34.823Z,35.60
2018-04-26T16:27:20.058Z,35.70
2018-04-26T16:29:59.700Z,35.30
2018-04-26T16:32:39.639Z,34.80
2018-04-26T16:35:21.664Z,38.00
2018-04-26T16:38:07.876Z,35.30
2018-04-26T16:40:36.314Z,35.80
2018-04-26T16:43:04.065Z,35.70
2018-04-26T16:45:32.293Z,35.30
2018-04-26T16:47:59.989Z,37.00
2018-04-26T16:50:27.743Z,39.50
2018-04-26T16:52:56.140Z,40.80
2018-04-26T16:55:23.801Z,40.80
2018-04-26T16:57:51.489Z,40.40
2018-04-26T17:00:19.185Z,41.60
2018-04-26T17:02:46.840Z,41.20
2018-04-26T17:05:14.527Z,42.20
2018-04-26T17:07:42.915Z,42.00
2018-04-26T17:10:10.647Z,41.90
2018-04-26T17:12:38.501Z,43.00
2018-04-26T17:15:06.117Z,43.60
2018-04-26T17:17:33.733Z,43.90
2018-04-26T17:20:01.386Z,44.40
2018-04-26T17:22:29.097Z,45.20
2018-04-26T17:24:56.831Z,45.20
2018-04-26T17:27:24.432Z,45.70
2018-04-26T17:29:52.093Z,45.80
2018-04-26T17:32:20.568Z,43.00
2018-04-26T17:34:48.287Z,42.70
2018-04-26T17:37:15.840Z,42.70
2018-04-26T17:39:43.485Z,42.70
2018-04-26T17:42:11.933Z,42.70
2018-04-26T17:44:40.332Z,42.50
2018-04-26T17:47:08.063Z,42.50
2018-04-26T17:49:35.714Z,43.60
2018-04-26T17:52:04.342Z,44.90
2018-04-26T17:54:32.279Z,45.30
2018-04-26T17:56:59.925Z,46.10
2018-04-26T17:59:27.614Z,47.00
2018-04-26T18:01:55.456Z,47.40
2018-04-26T18:04:23.127Z,47.80
2018-04-26T18:06:50.994Z,48.70
2018-04-26T18:09:19.134Z,49.00
2018-04-26T18:11:48.772Z,49.40
2018-04-26T18:14:16.456Z,49.90
2018-04-26T18:16:44.116Z,49.90
2018-04-26T18:19:14.922Z,50.50
2018-04-26T18:21:43.294Z,51.40
2018-04-26T18:24:11.029Z,51.40
2018-04-26T18:26:38.652Z,52.10
2018-04-26T18:29:06.345Z,52.40
2018-04-26T18:31:34.305Z,52.50
2018-04-26T18:34:02.063Z,52.80
2018-04-26T18:36:29.776Z,53.40
2018-04-26T18:38:58.781Z,53.30
2018-04-26T18:41:27.233Z,54.90
2018-04-26T18:43:54.962Z,54.80
2018-04-26T18:46:22.710Z,55.50
2018-04-26T18:48:51.263Z,57.00
2018-04-26T18:51:19.838Z,56.90
2018-04-26T18:53:49.518Z,57.90
2018-04-26T18:56:17.666Z,58.60
2018-04-26T18:58:47.189Z,60.20
2018-04-26T19:01:15.594Z,61.20
2018-04-26T19:03:43.303Z,61.00
2018-04-26T19:06:11.024Z,61.50
2018-04-26T19:08:39.577Z,62.80
2018-04-26T19:11:07.341Z,62.60
2018-04-26T19:13:36.070Z,63.50
2018-04-26T19:16:03.856Z,64.20
2018-04-26T19:18:31.526Z,64.60
2018-04-26T19:20:59.326Z,65.40
2018-04-26T19:23:26.992Z,65.10
2018-04-26T19:25:54.914Z,65.20
2018-04-26T19:28:22.781Z,66.20
2018-04-26T19:30:51.076Z,66.20
2018-04-26T19:33:18.842Z,67.90
2018-04-26T19:35:46.488Z,68.70
2018-04-26T19:38:15.164Z,69.70
2018-04-26T19:40:42.806Z,70.00
2018-04-26T19:43:10.658Z,70.00
2018-04-26T19:45:38.353Z,70.80
2018-04-26T19:48:06.852Z,71.60
2018-04-26T19:50:34.492Z,71.60
2018-04-26T19:53:03.354Z,72.10
2018-04-26T19:55:31.065Z,72.70
2018-04-26T19:57:58.764Z,73.30
2018-04-26T20:00:28.419Z,74.20
2018-04-26T20:02:56.158Z,74.90
2018-04-26T20:05:23.923Z,75.60
2018-04-26T20:07:52.341Z,75.80
2018-04-26T20:10:19.996Z,75.90
2018-04-26T20:12:47.631Z,76.30
2018-04-26T20:15:15.383Z,76.50
2018-04-26T20:17:43.443Z,76.90
2018-04-26T20:20:11.098Z,77.80
2018-04-26T20:22:39.100Z,78.50
2018-04-26T20:25:06.967Z,78.80
2018-04-26T20:27:34.672Z,79.70
2018-04-26T20:30:02.340Z,79.80
2018-04-26T20:32:30.548Z,81.00
2018-04-26T20:34:58.210Z,81.10
2018-04-26T20:37:25.855Z,81.40
2018-04-26T20:39:53.491Z,81.40
2018-04-26T20:42:21.517Z,81.70
2018-04-26T20:44:49.549Z,82.10
2018-04-26T20:47:18.715Z,82.80
2018-04-26T20:49:46.485Z,82.80
2018-04-26T20:52:14.148Z,83.20
2018-04-26T20:54:41.793Z,83.40
2018-04-26T20:57:09.642Z,83.80
2018-04-26T20:59:38.576Z,84.70
2018-04-26T21:02:06.256Z,84.60
2018-04-26T21:04:36.580Z,85.20
2018-04-26T21:07:04.360Z,85.70
2018-04-26T21:09:32.137Z,86.20
2018-04-26T21:12:00.234Z,86.80
2018-04-26T21:14:28.661Z,87.20
2018-04-26T21:16:56.332Z,87.10
2018-04-26T21:19:24.072Z,87.50
2018-04-26T21:21:51.877Z,87.50
2018-04-26T21:24:20.926Z,87.70
2018-04-26T21:26:49.868Z,87.80
2018-04-26T21:29:17.734Z,88.10
2018-04-26T21:31:47.404Z,88.10
2018-04-26T21:34:15.693Z,88.10
2018-04-26T21:36:43.352Z,88.40
2018-04-26T21:39:11.055Z,88.60
2018-04-26T21:41:38.672Z,88.20
2018-04-26T21:44:06.316Z,88.40
2018-04-26T21:46:33.900Z,90.10
2018-04-26T21:49:01.724Z,90.30
2018-04-26T21:51:34.812Z,89.60
2018-04-26T21:54:08.116Z,88.30
2018-04-26T21:56:41.319Z,87.70
2018-04-26T21:59:14.618Z,87.40
2018-04-26T22:01:49.568Z,87.80
2018-04-26T22:04:18.776Z,87.80
2018-04-26T22:06:46.436Z,88.00
2018-04-26T22:09:14.893Z,88.50
2018-04-26T22:11:42.864Z,88.40
2018-04-26T22:14:10.551Z,88.70
2018-04-26T22:16:38.166Z,88.50
2018-04-26T22:19:05.833Z,89.50
2018-04-26T22:21:33.460Z,89.10
2018-04-26T22:24:01.119Z,88.20
2018-04-26T22:26:28.732Z,88.00
2018-04-26T22:28:56.494Z,88.00
2018-04-26T22:31:24.139Z,88.10
2018-04-26T22:33:54.102Z,87.70
2018-04-26T22:36:23.076Z,87.70
2018-04-26T22:38:51.050Z,87.90
2018-04-26T22:41:22.162Z,87.70
2018-04-26T22:43:50.567Z,88.20
2018-04-26T22:46:18.188Z,88.10
2018-04-26T22:48:46.592Z,88.20
2018-04-26T22:51:15.524Z,88.20
2018-04-26T22:53:44.072Z,88.20
2018-04-26T22:56:11.784Z,88.50
2018-04-26T22:58:39.599Z,88.40
2018-04-26T23:01:07.250Z,88.70
2018-04-26T23:03:35.907Z,89.30
2018-04-26T23:06:04.000Z,89.30
2018-04-26T23:08:32.711Z,89.60
2018-04-26T23:11:00.335Z,90.00
2018-04-26T23:13:28.000Z,90.10
2018-04-26T23:15:55.871Z,90.20
2018-04-26T23:18:23.550Z,90.20
2018-04-26T23:20:52.093Z,90.20
2018-04-26T23:23:20.015Z,90.30
2018-04-26T23:25:48.435Z,90.40
2018-04-26T23:28:16.216Z,90.40
2018-04-26T23:30:44.025Z,90.40
2018-04-26T23:33:11.790Z,90.50
2018-04-26T23:35:39.416Z,90.40
2018-04-26T23:38:07.705Z,90.40
2018-04-26T23:40:35.342Z,90.60
2018-04-26T23:43:03.037Z,90.60
2018-04-26T23:45:30.640Z,90.60
2018-04-26T23:47:58.248Z,90.70
2018-04-26T23:50:48.448Z,90.90
2018-04-26T23:53:16.400Z,90.90
2018-04-26T23:55:44.027Z,91.10
2018-04-26T23:58:11.674Z,91.40
